Serenity — WDF3354 — position and weather

sailwx.info

Track history (hours):
 
Tides and Currents Weather Stations Pressure Air Temp Water Temp Dewpoint Dewpoint Depression Visibility Wind Speed Wind Dir Waves Ship Positions

Serenity

Owner: cox, robert e, Long Beach, CA. More information available from US FCC via Universal Licensing System and Coast Guard Vessel Documentation Center.

Last reported at 2015-Jul-05 17:33 UTC. Time now 2015-Jul-06 07:09 UTC.
Position N 48°32' W 122°49'.

Length 14 m.

Type: Pleasure craft. MMSI: 367438910.

Date/timePositionNaut miles runAvg speedWind from/ knotsBaromVisibWave heightAir tempDewpointWater temp
2015-Jul-05 17:33N 48°32' W 122°49'6 5.8
2015-Jul-05 16:34N 48°32' W 122°58'2 2.0
2015-Jul-05 15:32N 48°32' W 123°01'0 0.0
2015-Jul-05 14:32N 48°32' W 123°01'0 0.0
2015-Jul-05 13:32N 48°32' W 123°01'0 0.0
2015-Jul-05 12:32N 48°32' W 123°01'0 0.0
2015-Jul-05 11:32N 48°32' W 123°01'0 0.0
2015-Jul-05 10:29N 48°32' W 123°01'0 0.0
2015-Jul-05 09:32N 48°32' W 123°01'0 0.0
2015-Jul-05 08:32N 48°32' W 123°01'0 0.0
2015-Jul-05 07:32N 48°32' W 123°01'0 0.0
2015-Jul-05 06:32N 48°32' W 123°01'0 0.0
2015-Jul-05 05:32N 48°32' W 123°01'0 0.0
2015-Jul-05 04:32N 48°32' W 123°01'0 0.0
2015-Jul-05 03:32N 48°32' W 123°01'0 0.0
2015-Jul-05 02:32N 48°32' W 123°01'0 0.0
2015-Jul-05 01:32N 48°32' W 123°01'0 0.0
2015-Jul-05 00:29N 48°32' W 123°01'0 0.0
2015-Jul-04 23:29N 48°32' W 123°01'0 0.0
2015-Jul-04 22:32N 48°32' W 123°01'0 0.0
2015-Jul-04 21:32N 48°32' W 123°01'0 0.0
2015-Jul-04 20:26N 48°32' W 123°01'0 0.0
2015-Jul-04 19:29N 48°32' W 123°01'0 0.0
2015-Jul-04 18:26N 48°32' W 123°01'0 0.0
2015-Jul-04 17:32N 48°32' W 123°01'0 0.0
2015-Jul-04 16:32N 48°32' W 123°01'0 0.0
2015-Jul-04 15:32N 48°32' W 123°01'0 0.0
2015-Jul-04 14:29N 48°32' W 123°01'0 0.0
2015-Jul-04 13:29N 48°32' W 123°01'0 0.0
2015-Jul-04 12:32N 48°32' W 123°01'0 0.0
2015-Jul-04 11:32N 48°32' W 123°01'0 0.0
2015-Jul-04 10:32N 48°32' W 123°01'0 0.0
2015-Jul-04 09:26N 48°32' W 123°01'0 0.0
2015-Jul-04 08:32N 48°32' W 123°01'0 0.0
2015-Jul-04 07:26N 48°32' W 123°01'0 0.0
2015-Jul-04 06:29N 48°32' W 123°01'0 0.0
2015-Jul-04 05:32N 48°32' W 123°01'0 0.0
2015-Jul-03 21:29N 48°32' W 123°01'0 0.0
2015-Jul-03 20:32N 48°32' W 123°01'0 0.0
2015-Jul-03 19:32N 48°32' W 123°01'0 0.0
2015-Jul-03 18:32N 48°32' W 123°01'0 0.0
2015-Jul-03 17:29N 48°32' W 123°01'0 0.0
2015-Jul-03 16:32N 48°32' W 123°01'0 0.0
2015-Jul-03 15:32N 48°32' W 123°01'0 0.0
2015-Jul-03 14:26N 48°32' W 123°01'0 0.0
2015-Jul-03 13:32N 48°32' W 123°01'0 0.0
2015-Jul-03 12:29N 48°32' W 123°01'0 0.0
2015-Jul-03 11:32N 48°32' W 123°01'0 0.0
2015-Jul-03 10:33N 48°32' W 123°01'0 0.0
2015-Jul-03 09:33N 48°32' W 123°01'0 0.0
2015-Jul-03 08:30N 48°32' W 123°01'0 0.0
2015-Jul-03 07:30N 48°32' W 123°01'0 0.0
2015-Jul-03 06:27N 48°32' W 123°01'0 0.0
2015-Jul-03 05:33N 48°32' W 123°01'0 0.0
2015-Jul-03 04:33N 48°32' W 123°01'0 0.0
2015-Jul-03 03:30N 48°32' W 123°01'0 0.0
2015-Jul-03 02:33N 48°32' W 123°01'0 0.0
2015-Jul-03 01:33N 48°32' W 123°01'0 0.0
2015-Jul-03 00:30N 48°32' W 123°01'0 0.0
2015-Jul-02 23:27N 48°32' W 123°01'0 0.0
2015-Jul-02 22:33N 48°32' W 123°01'0 0.0
2015-Jul-02 21:33N 48°32' W 123°01'0 0.0
2015-Jul-02 20:33N 48°32' W 123°01'0 0.1
2015-Jul-02 19:33N 48°32' W 123°01'1 1.2
2015-Jul-02 18:33N 48°32' W 122°59'6 6.0
2015-Jul-02 17:33N 48°36' W 122°52'2 0.1
2015-Jul-01 19:33N 48°38' W 122°52'11 0.4
2015-Jun-30 18:04N 48°31' W 122°39'2 3.0
2015-Jun-30 17:26N 48°30' W 122°36'0 0.0
2015-Jun-30 16:32N 48°30' W 122°36'  
Track history (hours):
 
Tides and Currents Weather Stations Pressure Air Temp Water Temp Dewpoint Dewpoint Depression Visibility Wind Speed Wind Dir Waves Ship Positions

Serenity

Owner: cox, robert e, Long Beach, CA. More information available from US FCC via Universal Licensing System and Coast Guard Vessel Documentation Center.

Last reported at 2015-Jul-05 17:33 UTC. Time now 2015-Jul-06 07:09 UTC.
Position N 48°32' W 122°49'.

Length 14 m.

Type: Pleasure craft. MMSI: 367438910.

Date/timePositionNaut miles runAvg speedWind from/ knotsBaromVisibWave heightAir tempDewpointWater temp
2015-Jul-05 17:33N 48°32' W 122°49'6 5.8
2015-Jul-05 16:34N 48°32' W 122°58'2 2.0
2015-Jul-05 15:32N 48°32' W 123°01'0 0.0
2015-Jul-05 14:32N 48°32' W 123°01'0 0.0
2015-Jul-05 13:32N 48°32' W 123°01'0 0.0
2015-Jul-05 12:32N 48°32' W 123°01'0 0.0
2015-Jul-05 11:32N 48°32' W 123°01'0 0.0
2015-Jul-05 10:29N 48°32' W 123°01'0 0.0
2015-Jul-05 09:32N 48°32' W 123°01'0 0.0
2015-Jul-05 08:32N 48°32' W 123°01'0 0.0
2015-Jul-05 07:32N 48°32' W 123°01'0 0.0
2015-Jul-05 06:32N 48°32' W 123°01'0 0.0
2015-Jul-05 05:32N 48°32' W 123°01'0 0.0
2015-Jul-05 04:32N 48°32' W 123°01'0 0.0
2015-Jul-05 03:32N 48°32' W 123°01'0 0.0
2015-Jul-05 02:32N 48°32' W 123°01'0 0.0
2015-Jul-05 01:32N 48°32' W 123°01'0 0.0
2015-Jul-05 00:29N 48°32' W 123°01'0 0.0
2015-Jul-04 23:29N 48°32' W 123°01'0 0.0
2015-Jul-04 22:32N 48°32' W 123°01'0 0.0
2015-Jul-04 21:32N 48°32' W 123°01'0 0.0
2015-Jul-04 20:26N 48°32' W 123°01'0 0.0
2015-Jul-04 19:29N 48°32' W 123°01'0 0.0
2015-Jul-04 18:26N 48°32' W 123°01'0 0.0
2015-Jul-04 17:32N 48°32' W 123°01'0 0.0
2015-Jul-04 16:32N 48°32' W 123°01'0 0.0
2015-Jul-04 15:32N 48°32' W 123°01'0 0.0
2015-Jul-04 14:29N 48°32' W 123°01'0 0.0
2015-Jul-04 13:29N 48°32' W 123°01'0 0.0
2015-Jul-04 12:32N 48°32' W 123°01'0 0.0
2015-Jul-04 11:32N 48°32' W 123°01'0 0.0
2015-Jul-04 10:32N 48°32' W 123°01'0 0.0
2015-Jul-04 09:26N 48°32' W 123°01'0 0.0
2015-Jul-04 08:32N 48°32' W 123°01'0 0.0
2015-Jul-04 07:26N 48°32' W 123°01'0 0.0
2015-Jul-04 06:29N 48°32' W 123°01'0 0.0
2015-Jul-04 05:32N 48°32' W 123°01'0 0.0
2015-Jul-03 21:29N 48°32' W 123°01'0 0.0
2015-Jul-03 20:32N 48°32' W 123°01'0 0.0
2015-Jul-03 19:32N 48°32' W 123°01'0 0.0
2015-Jul-03 18:32N 48°32' W 123°01'0 0.0
2015-Jul-03 17:29N 48°32' W 123°01'0 0.0
2015-Jul-03 16:32N 48°32' W 123°01'0 0.0
2015-Jul-03 15:32N 48°32' W 123°01'0 0.0
2015-Jul-03 14:26N 48°32' W 123°01'0 0.0
2015-Jul-03 13:32N 48°32' W 123°01'0 0.0
2015-Jul-03 12:29N 48°32' W 123°01'0 0.0
2015-Jul-03 11:32N 48°32' W 123°01'0 0.0
2015-Jul-03 10:33N 48°32' W 123°01'0 0.0
2015-Jul-03 09:33N 48°32' W 123°01'0 0.0
2015-Jul-03 08:30N 48°32' W 123°01'0 0.0
2015-Jul-03 07:30N 48°32' W 123°01'0 0.0
2015-Jul-03 06:27N 48°32' W 123°01'0 0.0
2015-Jul-03 05:33N 48°32' W 123°01'0 0.0
2015-Jul-03 04:33N 48°32' W 123°01'0 0.0
2015-Jul-03 03:30N 48°32' W 123°01'0 0.0
2015-Jul-03 02:33N 48°32' W 123°01'0 0.0
2015-Jul-03 01:33N 48°32' W 123°01'0 0.0
2015-Jul-03 00:30N 48°32' W 123°01'0 0.0
2015-Jul-02 23:27N 48°32' W 123°01'0 0.0
2015-Jul-02 22:33N 48°32' W 123°01'0 0.0
2015-Jul-02 21:33N 48°32' W 123°01'0 0.0
2015-Jul-02 20:33N 48°32' W 123°01'0 0.1
2015-Jul-02 19:33N 48°32' W 123°01'1 1.2
2015-Jul-02 18:33N 48°32' W 122°59'6 6.0
2015-Jul-02 17:33N 48°36' W 122°52'2 0.1
2015-Jul-01 19:33N 48°38' W 122°52'11 0.4
2015-Jun-30 18:04N 48°31' W 122°39'2 3.0
2015-Jun-30 17:26N 48°30' W 122°36'0 0.0
2015-Jun-30 16:32N 48°30' W 122°36'  

Dump ship's entire track history